createdAt,value
2023-04-15T00:00:07.148Z,77.20
2023-04-15T00:01:02.328Z,77.07
2023-04-15T00:01:57.758Z,76.96
2023-04-15T00:02:52.849Z,77.07
2023-04-15T00:03:47.998Z,77.28
2023-04-15T00:04:43.065Z,77.72
2023-04-15T00:05:39.182Z,78.00
2023-04-15T00:06:34.364Z,78.03
2023-04-15T00:07:29.591Z,77.96
2023-04-15T00:08:24.961Z,77.94
2023-04-15T00:09:19.904Z,78.06
2023-04-15T00:10:15.115Z,78.09
2023-04-15T00:11:13.137Z,78.15
2023-04-15T00:12:08.194Z,78.16
2023-04-15T00:13:07.259Z,78.20
2023-04-15T00:14:02.457Z,78.24
2023-04-15T00:14:57.507Z,78.35
2023-04-15T00:15:52.714Z,78.40
2023-04-15T00:16:48.010Z,78.30
2023-04-15T00:17:43.094Z,78.21
2023-04-15T00:18:38.430Z,77.99
2023-04-15T00:19:33.634Z,77.81
2023-04-15T00:20:28.710Z,77.66
2023-04-15T00:21:24.666Z,77.33
2023-04-15T00:22:19.712Z,77.30
2023-04-15T00:23:15.614Z,77.41
2023-04-15T00:24:10.828Z,77.61
2023-04-15T00:25:06.055Z,77.74
2023-04-15T00:26:01.822Z,77.99
2023-04-15T00:26:56.965Z,78.18
2023-04-15T00:27:52.134Z,78.40
2023-04-15T00:28:48.461Z,78.73
2023-04-15T00:29:43.702Z,78.92
2023-04-15T00:30:39.565Z,79.15
2023-04-15T00:31:34.616Z,79.34
2023-04-15T00:32:29.814Z,79.47
2023-04-15T00:33:25.575Z,79.61
2023-04-15T00:34:21.014Z,79.58
2023-04-15T00:35:16.729Z,79.49
2023-04-15T00:36:11.844Z,79.44
2023-04-15T00:37:07.137Z,79.40
2023-04-15T00:38:03.066Z,79.36
2023-04-15T00:38:58.701Z,79.32
2023-04-15T00:39:53.628Z,79.42
2023-04-15T00:40:50.226Z,79.54
2023-04-15T00:41:45.416Z,79.54
2023-04-15T00:42:41.248Z,79.56
2023-04-15T00:43:36.421Z,79.59
2023-04-15T00:44:31.785Z,79.51
2023-04-15T00:45:27.414Z,79.41
2023-04-15T00:46:22.635Z,79.43
2023-04-15T00:47:18.447Z,79.43
2023-04-15T00:48:13.611Z,79.56
2023-04-15T00:49:09.619Z,79.79
2023-04-15T00:50:04.556Z,79.83
2023-04-15T00:50:59.754Z,79.62
2023-04-15T00:51:54.929Z,79.46
2023-04-15T00:52:51.381Z,79.44
2023-04-15T00:53:46.584Z,79.36
2023-04-15T00:54:42.512Z,79.51
2023-04-15T00:55:37.661Z,79.65
2023-04-15T00:56:33.017Z,79.67
2023-04-15T00:57:28.745Z,79.66
2023-04-15T00:58:23.984Z,79.59
2023-04-15T00:59:19.723Z,79.65
2023-04-15T01:00:14.916Z,79.63
2023-04-15T01:01:10.154Z,79.56
2023-04-15T01:02:05.927Z,79.47
2023-04-15T01:03:01.144Z,79.42
2023-04-15T01:03:56.373Z,79.43
2023-04-15T01:04:52.569Z,79.45
2023-04-15T01:05:47.774Z,79.50
2023-04-15T01:06:43.495Z,79.64
2023-04-15T01:07:38.683Z,79.89
2023-04-15T01:08:33.857Z,79.91
2023-04-15T01:09:29.921Z,79.79
2023-04-15T01:10:25.028Z,79.68
2023-04-15T01:11:20.899Z,79.52
2023-04-15T01:12:15.939Z,79.42
2023-04-15T01:13:11.295Z,79.36
2023-04-15T01:14:07.059Z,79.22
2023-04-15T01:15:02.335Z,79.12
2023-04-15T01:15:57.515Z,79.01
2023-04-15T01:16:53.833Z,79.01
2023-04-15T01:17:49.036Z,78.85
2023-04-15T01:18:44.911Z,78.62
2023-04-15T01:19:40.084Z,78.51
2023-04-15T01:20:35.439Z,78.49
2023-04-15T01:21:30.444Z,78.39
2023-04-15T01:22:25.618Z,78.44
2023-04-15T01:23:20.663Z,78.57
2023-04-15T01:24:15.705Z,78.54
2023-04-15T01:25:10.755Z,78.68
2023-04-15T01:26:05.820Z,78.93
2023-04-15T01:27:00.875Z,79.10
2023-04-15T01:27:55.985Z,79.11
2023-04-15T01:28:51.005Z,79.07
2023-04-15T01:29:46.081Z,79.13
2023-04-15T01:30:46.193Z,79.25
2023-04-15T01:31:41.273Z,79.32
2023-04-15T01:32:36.411Z,79.45
2023-04-15T01:33:31.478Z,79.58
2023-04-15T01:34:26.475Z,79.59
2023-04-15T01:35:21.581Z,79.69
2023-04-15T01:36:16.502Z,79.72
2023-04-15T01:37:11.619Z,79.58
2023-04-15T01:38:06.801Z,79.57
2023-04-15T01:39:02.204Z,79.67
2023-04-15T01:39:57.068Z,79.77
2023-04-15T01:40:52.303Z,79.77
2023-04-15T01:41:47.167Z,79.98
2023-04-15T01:42:42.227Z,80.00
2023-04-15T01:43:37.294Z,80.02
2023-04-15T01:44:32.338Z,80.14
2023-04-15T01:45:27.365Z,80.22
2023-04-15T01:46:22.553Z,80.38
2023-04-15T01:47:17.520Z,80.57
2023-04-15T01:48:12.602Z,80.99
2023-04-15T01:49:07.635Z,81.07
2023-04-15T01:50:02.669Z,80.92
2023-04-15T01:50:57.723Z,80.74
2023-04-15T01:51:52.764Z,80.71
2023-04-15T01:52:47.772Z,80.76
2023-04-15T01:53:42.806Z,80.47
2023-04-15T01:54:37.850Z,80.46
2023-04-15T01:55:32.895Z,80.23
2023-04-15T01:56:27.947Z,80.16
2023-04-15T01:57:23.550Z,80.05
2023-04-15T01:58:18.555Z,80.02
2023-04-15T01:59:13.720Z,80.09
2023-04-15T02:00:08.760Z,80.19
2023-04-15T02:01:04.016Z,80.45
2023-04-15T02:01:59.030Z,80.67
2023-04-15T02:02:54.042Z,80.91
2023-04-15T02:03:49.249Z,81.11
2023-04-15T02:04:44.110Z,81.28
2023-04-15T02:05:39.431Z,81.26
2023-04-15T02:06:34.305Z,81.23
2023-04-15T02:07:29.535Z,81.03
2023-04-15T02:08:30.263Z,80.96
2023-04-15T02:09:25.419Z,80.82
2023-04-15T02:10:20.739Z,80.65
2023-04-15T02:11:16.548Z,80.50
2023-04-15T02:12:11.720Z,80.46
2023-04-15T02:13:06.923Z,80.62
2023-04-15T02:14:03.038Z,80.96
2023-04-15T02:14:58.241Z,80.95
2023-04-15T02:15:54.013Z,80.76
2023-04-15T02:16:49.254Z,80.63
2023-04-15T02:17:44.248Z,80.67
2023-04-15T02:18:40.142Z,80.93
2023-04-15T02:19:35.332Z,81.24
2023-04-15T02:20:31.216Z,81.50
2023-04-15T02:21:26.367Z,81.82
2023-04-15T02:22:21.608Z,82.10
2023-04-15T02:23:17.312Z,82.39
2023-04-15T02:24:12.585Z,82.57
2023-04-15T02:25:07.684Z,82.77
2023-04-15T02:26:04.141Z,82.94
2023-04-15T02:26:59.202Z,82.99
2023-04-15T02:27:55.085Z,83.06
2023-04-15T02:28:50.242Z,83.15
2023-04-15T02:29:45.457Z,83.33
2023-04-15T02:30:41.193Z,83.39
2023-04-15T02:31:36.444Z,83.30
2023-04-15T02:32:32.296Z,83.20
2023-04-15T02:33:27.323Z,83.16
2023-04-15T02:34:22.637Z,83.14
2023-04-15T02:35:18.570Z,83.27
2023-04-15T02:36:13.760Z,83.14
2023-04-15T02:37:09.071Z,82.93
2023-04-15T02:38:05.082Z,82.79
2023-04-15T02:39:00.519Z,82.65
2023-04-15T02:39:56.077Z,82.56
2023-04-15T02:40:51.424Z,82.49
2023-04-15T02:41:46.602Z,82.56
2023-04-15T02:42:42.368Z,82.66
2023-04-15T02:43:37.534Z,82.84
2023-04-15T02:44:33.445Z,82.87
2023-04-15T02:45:28.568Z,82.86
2023-04-15T02:46:24.005Z,82.88
2023-04-15T02:47:19.545Z,82.92
2023-04-15T02:48:14.748Z,82.96
2023-04-15T02:49:09.905Z,82.99
2023-04-15T02:50:06.303Z,83.09
2023-04-15T02:51:01.697Z,83.11
2023-04-15T02:51:57.349Z,83.15
2023-04-15T02:52:52.485Z,83.20
2023-04-15T02:53:47.723Z,83.27
2023-04-15T02:54:43.445Z,83.33
2023-04-15T02:55:38.674Z,83.19
2023-04-15T02:56:34.411Z,82.99
2023-04-15T02:57:29.601Z,82.80
2023-04-15T02:58:24.787Z,82.69
2023-04-15T02:59:20.673Z,82.55
2023-04-15T03:00:15.868Z,82.65
2023-04-15T03:01:11.248Z,82.61
2023-04-15T03:02:07.537Z,82.44
2023-04-15T03:03:02.907Z,82.38
2023-04-15T03:03:58.661Z,82.28
2023-04-15T03:04:53.786Z,82.16
2023-04-15T03:05:48.962Z,82.05
2023-04-15T03:06:44.739Z,81.96
2023-04-15T03:07:39.920Z,82.22
2023-04-15T03:08:35.050Z,82.22
2023-04-15T03:09:30.237Z,81.83
2023-04-15T03:10:26.126Z,81.53
2023-04-15T03:11:21.464Z,81.45
2023-04-15T03:12:16.508Z,81.45
2023-04-15T03:13:12.913Z,81.37
2023-04-15T03:14:08.128Z,81.30
2023-04-15T03:15:03.855Z,81.47
2023-04-15T03:15:59.243Z,81.65
2023-04-15T03:16:54.089Z,81.74
2023-04-15T03:17:49.898Z,81.82
2023-04-15T03:18:44.969Z,82.01
2023-04-15T03:19:40.716Z,82.09
2023-04-15T03:20:35.880Z,82.17
2023-04-15T03:21:31.159Z,82.36
2023-04-15T03:22:26.872Z,82.52
2023-04-15T03:23:22.115Z,82.58
2023-04-15T03:24:17.264Z,82.73
2023-04-15T03:25:13.573Z,82.85
2023-04-15T03:26:08.732Z,83.07
2023-04-15T03:27:03.907Z,83.21
2023-04-15T03:27:59.094Z,83.29
2023-04-15T03:28:54.277Z,83.27
2023-04-15T03:29:49.455Z,83.21
2023-04-15T03:30:45.370Z,83.19
2023-04-15T03:31:40.577Z,83.20
2023-04-15T03:32:35.973Z,83.29
2023-04-15T03:33:30.959Z,83.23
2023-04-15T03:34:27.438Z,83.28
2023-04-15T03:35:22.586Z,83.29
2023-04-15T03:36:17.639Z,83.35
2023-04-15T03:37:16.966Z,83.48
2023-04-15T03:38:12.170Z,83.51
2023-04-15T03:39:07.361Z,83.37
2023-04-15T03:40:02.683Z,83.33
2023-04-15T03:40:57.695Z,83.28
2023-04-15T03:41:52.909Z,83.23
2023-04-15T03:42:49.020Z,83.01
2023-04-15T03:43:44.330Z,82.83
2023-04-15T03:44:39.381Z,82.74
2023-04-15T03:45:34.580Z,82.63
2023-04-15T03:46:29.674Z,82.55
2023-04-15T03:47:24.826Z,82.50
2023-04-15T03:48:21.265Z,82.43
2023-04-15T03:49:16.482Z,82.33
2023-04-15T03:50:11.708Z,82.37
2023-04-15T03:51:06.802Z,82.55
2023-04-15T03:52:01.983Z,82.60
2023-04-15T03:52:57.154Z,82.47
2023-04-15T03:53:52.306Z,82.32
2023-04-15T03:54:47.488Z,82.15
2023-04-15T03:55:42.647Z,82.10
2023-04-15T03:56:37.978Z,82.13
2023-04-15T03:57:32.993Z,82.26
2023-04-15T03:58:28.158Z,82.52
2023-04-15T03:59:23.322Z,82.81
2023-04-15T04:00:18.688Z,82.88
2023-04-15T04:01:13.853Z,82.78
2023-04-15T04:02:09.119Z,82.71
2023-04-15T04:03:04.438Z,82.77
2023-04-15T04:03:59.482Z,82.83
2023-04-15T04:04:54.484Z,82.96
2023-04-15T04:05:49.667Z,83.10
2023-04-15T04:06:44.850Z,83.24
2023-04-15T04:07:40.014Z,83.41
2023-04-15T04:08:35.301Z,83.53
2023-04-15T04:09:30.362Z,83.63
2023-04-15T04:10:25.428Z,83.71
2023-04-15T04:11:20.637Z,83.81
2023-04-15T04:12:15.784Z,83.86
2023-04-15T04:13:11.147Z,83.86
2023-04-15T04:14:08.263Z,83.89
2023-04-15T04:15:03.492Z,84.01
2023-04-15T04:15:59.000Z,84.06
2023-04-15T04:16:54.059Z,84.13
2023-04-15T04:17:49.297Z,84.10
2023-04-15T04:18:44.520Z,84.14
2023-04-15T04:19:39.492Z,84.17
2023-04-15T04:20:34.585Z,84.25
2023-04-15T04:21:29.724Z,84.27
2023-04-15T04:22:24.812Z,84.23
2023-04-15T04:23:19.805Z,84.23
2023-04-15T04:24:14.887Z,84.20
2023-04-15T04:25:09.956Z,84.10
2023-04-15T04:26:05.688Z,84.05
2023-04-15T04:27:00.620Z,83.86
2023-04-15T04:27:55.704Z,83.53
2023-04-15T04:28:50.677Z,83.30
2023-04-15T04:29:45.931Z,83.14
2023-04-15T04:30:41.213Z,83.03
2023-04-15T04:31:36.445Z,82.86
2023-04-15T04:32:31.514Z,82.85
2023-04-15T04:33:26.578Z,82.90
2023-04-15T04:34:21.559Z,82.90
2023-04-15T04:35:16.654Z,82.97
2023-04-15T04:36:11.734Z,83.03
2023-04-15T04:37:06.791Z,83.06
2023-04-15T04:39:27.565Z,83.72
2023-04-15T04:40:22.691Z,83.56
2023-04-15T04:41:18.000Z,83.55
2023-04-15T04:42:13.135Z,83.53
2023-04-15T04:43:08.400Z,83.47
2023-04-15T04:44:03.644Z,83.44
2023-04-15T04:44:58.926Z,83.43
2023-04-15T04:45:54.220Z,83.40
2023-04-15T04:46:49.697Z,83.45
2023-04-15T04:47:44.728Z,83.55
2023-04-15T04:48:39.985Z,83.68
2023-04-15T04:49:35.265Z,83.82
2023-04-15T04:50:30.469Z,83.99
2023-04-15T04:51:25.556Z,84.15
2023-04-15T04:52:20.865Z,84.32
2023-04-15T04:53:16.123Z,84.46
2023-04-15T04:54:11.403Z,84.68
2023-04-15T04:55:06.670Z,84.82
2023-04-15T04:56:02.102Z,84.87
2023-04-15T04:56:57.086Z,84.76
2023-04-15T04:57:52.380Z,84.65
2023-04-15T04:58:47.624Z,84.55
2023-04-15T04:59:43.037Z,84.44
2023-04-15T05:00:38.208Z,84.40
2023-04-15T05:01:33.602Z,84.43
2023-04-15T05:02:28.820Z,84.44
2023-04-15T05:03:24.146Z,84.46
2023-04-15T05:04:19.173Z,84.54
2023-04-15T05:05:14.454Z,84.56
2023-04-15T05:06:09.836Z,84.60
2023-04-15T05:07:05.000Z,84.53
2023-04-15T05:08:00.209Z,84.51
2023-04-15T05:08:55.520Z,84.50
2023-04-15T05:09:50.976Z,84.39
2023-04-15T05:10:46.219Z,84.31
2023-04-15T05:11:41.381Z,84.12
2023-04-15T05:12:36.734Z,83.96
2023-04-15T05:13:32.071Z,83.87
2023-04-15T05:14:27.379Z,83.88
2023-04-15T05:15:22.590Z,84.05
2023-04-15T05:16:18.009Z,84.06
2023-04-15T05:17:13.139Z,83.92
2023-04-15T05:18:08.523Z,83.85
2023-04-15T05:19:03.894Z,83.68
2023-04-15T05:19:59.213Z,83.38
2023-04-15T05:20:54.424Z,83.18
2023-04-15T05:21:49.751Z,83.07
2023-04-15T05:22:45.080Z,83.04
2023-04-15T05:23:40.452Z,83.00
2023-04-15T05:24:35.749Z,82.96
2023-04-15T05:25:31.265Z,82.90
2023-04-15T05:26:26.294Z,82.75
2023-04-15T05:27:21.652Z,82.81
2023-04-15T05:28:16.899Z,82.84
2023-04-15T05:29:12.220Z,82.91
2023-04-15T05:30:07.661Z,83.08
2023-04-15T05:31:03.074Z,83.11
2023-04-15T05:31:58.068Z,83.01
2023-04-15T05:32:53.471Z,82.90
2023-04-15T05:33:48.764Z,82.83
2023-04-15T05:34:44.123Z,82.88
2023-04-15T05:35:39.335Z,82.92
2023-04-15T05:36:34.597Z,83.00
2023-04-15T05:37:29.856Z,82.85
2023-04-15T05:38:25.145Z,82.84
2023-04-15T05:39:20.455Z,82.66
2023-04-15T05:40:15.960Z,82.45
2023-04-15T05:41:11.030Z,82.32
2023-04-15T05:42:06.366Z,82.29
2023-04-15T05:43:01.551Z,82.30
2023-04-15T05:43:56.887Z,82.32
2023-04-15T05:44:52.225Z,82.30
2023-04-15T05:45:47.571Z,82.24
2023-04-15T05:46:42.961Z,82.11
2023-04-15T05:47:38.220Z,81.96
2023-04-15T05:48:33.394Z,81.90
2023-04-15T05:49:28.727Z,81.97
2023-04-15T05:50:24.337Z,82.05
2023-04-15T05:51:19.428Z,82.20
2023-04-15T05:52:14.769Z,82.31
2023-04-15T05:53:10.179Z,82.34
2023-04-15T05:54:05.473Z,82.42
2023-04-15T05:55:00.845Z,82.41
2023-04-15T05:55:56.046Z,82.34
2023-04-15T05:56:51.368Z,82.27
2023-04-15T05:57:46.696Z,82.14
2023-04-15T05:58:42.175Z,82.06
2023-04-15T05:59:37.339Z,81.97
2023-04-15T06:00:32.841Z,81.90
2023-04-15T06:01:27.916Z,81.83
2023-04-15T06:02:23.341Z,81.77
2023-04-15T06:03:18.567Z,81.73
2023-04-15T06:04:13.833Z,81.77
2023-04-15T06:05:09.118Z,81.72
2023-04-15T06:06:04.298Z,81.69
2023-04-15T06:06:59.637Z,81.64
2023-04-15T06:07:54.980Z,81.56
2023-04-15T06:08:50.230Z,81.48
2023-04-15T06:09:45.960Z,81.48
2023-04-15T06:10:41.340Z,81.42
2023-04-15T06:11:36.421Z,81.45
2023-04-15T06:12:31.718Z,81.50
2023-04-15T06:13:27.219Z,81.43
2023-04-15T06:14:22.543Z,81.34
2023-04-15T06:15:18.074Z,81.25
2023-04-15T06:16:13.195Z,81.29
2023-04-15T06:17:08.555Z,81.29
2023-04-15T06:18:03.692Z,81.39
2023-04-15T06:18:59.101Z,81.38
2023-04-15T06:19:54.443Z,81.40
2023-04-15T06:20:49.648Z,81.43
2023-04-15T06:21:45.007Z,81.42
2023-04-15T06:22:40.374Z,81.37
2023-04-15T06:23:35.695Z,81.33
2023-04-15T06:24:30.994Z,81.23
2023-04-15T06:25:26.493Z,80.99
2023-04-15T06:26:21.684Z,80.82
2023-04-15T06:27:17.031Z,80.72
2023-04-15T06:28:12.246Z,80.63
2023-04-15T06:29:07.560Z,80.52
2023-04-15T06:30:02.889Z,80.46
2023-04-15T06:30:58.252Z,80.42
2023-04-15T06:31:53.607Z,80.37
2023-04-15T06:32:49.149Z,80.34
2023-04-15T06:33:44.182Z,80.38
2023-04-15T06:34:39.593Z,80.34
2023-04-15T06:35:34.798Z,80.23
2023-04-15T06:36:30.169Z,80.33
2023-04-15T06:37:25.354Z,80.38
2023-04-15T06:38:20.733Z,80.28
2023-04-15T06:39:16.029Z,80.17
2023-04-15T06:40:11.416Z,80.20
2023-04-15T06:41:07.028Z,80.19
2023-04-15T06:42:02.393Z,80.12
2023-04-15T06:42:57.580Z,80.14
2023-04-15T06:43:52.900Z,80.23
2023-04-15T06:44:48.218Z,80.20
2023-04-15T06:45:43.805Z,80.07
2023-04-15T06:46:38.967Z,81.81
2023-04-15T06:47:34.356Z,81.35
2023-04-15T06:48:29.649Z,80.78
2023-04-15T06:49:24.745Z,80.47
2023-04-15T06:50:20.119Z,80.34
2023-04-15T06:51:15.051Z,80.24
2023-04-15T06:52:10.071Z,80.00
2023-04-15T06:53:05.204Z,79.52
2023-04-15T06:54:00.223Z,79.02
2023-04-15T06:54:55.314Z,78.80
2023-04-15T06:55:50.398Z,78.66
2023-04-15T06:56:50.884Z,78.37
2023-04-15T06:57:46.180Z,77.86
2023-04-15T06:58:41.474Z,77.73
2023-04-15T06:59:37.285Z,77.47
2023-04-15T07:00:32.709Z,77.08
2023-04-15T07:01:28.010Z,77.15
2023-04-15T07:02:24.347Z,77.37
2023-04-15T07:03:19.650Z,77.62
2023-04-15T07:04:15.479Z,77.75
2023-04-15T07:05:10.748Z,77.72
2023-04-15T07:06:06.019Z,77.49
2023-04-15T07:07:01.721Z,77.28
2023-04-15T07:07:57.231Z,76.97
2023-04-15T07:08:52.979Z,76.94
2023-04-15T07:09:48.264Z,76.88
2023-04-15T07:10:43.811Z,76.89
2023-04-15T07:11:39.530Z,76.93
2023-04-15T07:12:34.930Z,76.86
2023-04-15T07:13:30.447Z,76.71
2023-04-15T07:14:26.541Z,76.50
2023-04-15T07:15:22.134Z,76.18
2023-04-15T07:16:17.850Z,76.15
2023-04-15T07:17:13.437Z,76.04
2023-04-15T07:18:08.824Z,76.03
2023-04-15T07:19:04.717Z,75.83
2023-04-15T07:19:59.896Z,75.40
2023-04-15T07:20:55.762Z,75.22
2023-04-15T07:21:51.013Z,75.27
2023-04-15T07:22:46.559Z,75.29
2023-04-15T07:23:42.182Z,75.36
2023-04-15T07:24:37.401Z,75.33
2023-04-15T07:25:32.841Z,75.16
2023-04-15T07:26:29.108Z,74.64
2023-04-15T07:27:24.404Z,74.26
2023-04-15T07:28:20.230Z,73.78
2023-04-15T07:29:15.463Z,73.33
2023-04-15T07:30:10.934Z,72.89
2023-04-15T07:31:06.673Z,72.56
2023-04-15T07:32:01.997Z,71.85
2023-04-15T07:32:57.759Z,71.36
2023-04-15T07:33:53.083Z,71.11
2023-04-15T07:34:48.352Z,70.39
2023-04-15T07:35:44.199Z,69.13
2023-04-15T07:36:39.499Z,68.39
2023-04-15T07:37:34.898Z,68.73
2023-04-15T07:38:31.145Z,68.84
2023-04-15T07:39:26.541Z,69.06
2023-04-15T07:40:22.370Z,69.76
2023-04-15T07:41:17.657Z,70.44
2023-04-15T07:42:12.899Z,70.63
2023-04-15T07:43:08.775Z,70.51
2023-04-15T07:44:04.178Z,70.14
2023-04-15T07:45:00.360Z,69.49
2023-04-15T07:45:55.380Z,69.79
2023-04-15T07:46:50.792Z,69.43
2023-04-15T07:47:46.557Z,69.28
2023-04-15T07:48:41.836Z,69.00
2023-04-15T07:49:37.213Z,68.89
2023-04-15T07:50:33.489Z,68.59
2023-04-15T07:51:28.726Z,68.50
2023-04-15T07:52:24.604Z,68.62
2023-04-15T07:53:19.816Z,68.71
2023-04-15T07:54:15.367Z,68.83
2023-04-15T07:55:11.113Z,68.61
2023-04-15T07:56:06.387Z,68.48
2023-04-15T07:57:01.653Z,68.36
2023-04-15T07:57:57.076Z,68.88
2023-04-15T07:58:52.878Z,68.44
2023-04-15T07:59:48.614Z,68.09
2023-04-15T08:00:43.590Z,67.57
2023-04-15T08:01:40.227Z,67.36
2023-04-15T08:02:37.492Z,67.31
2023-04-15T08:03:31.548Z,67.07
2023-04-15T08:04:27.021Z,67.39
2023-04-15T08:05:22.419Z,67.57
2023-04-15T08:06:17.976Z,67.59
2023-04-15T08:07:13.448Z,67.38
2023-04-15T08:08:09.189Z,67.23
2023-04-15T08:09:04.850Z,67.18
2023-04-15T08:10:00.182Z,67.16
2023-04-15T08:10:55.796Z,67.22
2023-04-15T08:11:51.081Z,67.57
2023-04-15T08:12:46.471Z,67.49
2023-04-15T08:13:42.724Z,67.44
2023-04-15T08:14:38.368Z,67.55
2023-04-15T08:15:33.564Z,67.27
2023-04-15T08:16:29.081Z,67.40
2023-04-15T08:17:24.539Z,67.11
2023-04-15T08:18:19.621Z,66.75
2023-04-15T08:19:14.630Z,66.18
2023-04-15T08:20:09.744Z,65.80
2023-04-15T08:21:04.781Z,65.83
2023-04-15T08:21:59.993Z,65.67
2023-04-15T08:22:55.060Z,65.52
2023-04-15T08:23:50.125Z,65.65
2023-04-15T08:24:45.224Z,65.79
2023-04-15T08:25:42.565Z,65.59
2023-04-15T08:26:37.605Z,65.65
2023-04-15T08:27:32.698Z,66.08
2023-04-15T08:28:27.752Z,66.14
2023-04-15T08:29:22.873Z,66.11
2023-04-15T08:30:17.799Z,66.18
2023-04-15T08:31:13.023Z,66.23
2023-04-15T08:32:08.268Z,66.11
2023-04-15T08:33:03.367Z,65.69
2023-04-15T08:33:58.393Z,65.78
2023-04-15T08:34:53.671Z,65.82
2023-04-15T08:35:48.557Z,65.26
2023-04-15T08:36:43.632Z,64.85
2023-04-15T08:37:38.689Z,64.99
2023-04-15T08:38:33.760Z,64.93
2023-04-15T08:39:28.949Z,65.32
2023-04-15T08:40:24.005Z,65.27
2023-04-15T08:41:19.028Z,65.37
2023-04-15T08:42:15.608Z,65.61
2023-04-15T08:43:11.038Z,65.47
2023-04-15T08:44:06.650Z,65.76
2023-04-15T08:45:01.906Z,66.00
2023-04-15T08:45:57.388Z,66.02
2023-04-15T08:46:52.806Z,65.78
2023-04-15T08:47:48.372Z,65.86
2023-04-15T08:48:43.509Z,65.54
2023-04-15T08:49:38.932Z,65.32
2023-04-15T08:50:34.246Z,65.07
2023-04-15T08:51:29.795Z,64.83
2023-04-15T08:52:25.317Z,64.88
2023-04-15T08:53:20.732Z,64.71
2023-04-15T08:54:16.123Z,64.53
2023-04-15T08:55:11.573Z,64.21
2023-04-15T08:56:06.895Z,64.33
2023-04-15T08:57:02.519Z,64.36
2023-04-15T08:58:01.909Z,64.36
2023-04-15T08:58:57.334Z,64.40
2023-04-15T08:59:52.661Z,64.68
2023-04-15T09:00:48.062Z,63.99
2023-04-15T09:01:43.687Z,63.84
2023-04-15T09:02:38.784Z,63.62
2023-04-15T09:03:33.889Z,63.44
2023-04-15T09:04:29.168Z,63.19
2023-04-15T09:05:23.933Z,62.30
2023-04-15T09:06:19.024Z,62.45
2023-04-15T09:07:14.034Z,61.52
2023-04-15T09:08:09.300Z,61.34
2023-04-15T09:09:04.675Z,60.48
2023-04-15T09:09:59.478Z,60.21
2023-04-15T09:10:54.574Z,60.06
2023-04-15T09:11:49.639Z,59.28
2023-04-15T09:12:44.800Z,59.30
2023-04-15T09:13:39.933Z,58.12
2023-04-15T09:14:34.857Z,57.37
2023-04-15T09:15:30.083Z,56.23
2023-04-15T09:16:25.492Z,56.52
2023-04-15T09:17:20.985Z,56.20
2023-04-15T09:18:16.327Z,55.44
2023-04-15T09:19:11.678Z,55.23
2023-04-15T09:20:07.134Z,54.46
2023-04-15T09:21:03.470Z,53.62
2023-04-15T09:21:59.218Z,53.06
2023-04-15T09:22:54.390Z,53.29
2023-04-15T09:23:49.579Z,54.38
2023-04-15T09:24:45.055Z,54.80
2023-04-15T09:25:40.366Z,55.63
2023-04-15T09:26:35.845Z,56.45
2023-04-15T09:27:31.178Z,55.54
2023-04-15T09:28:26.679Z,55.54
2023-04-15T09:29:21.830Z,54.90
2023-04-15T09:30:16.930Z,54.53
2023-04-15T09:31:11.999Z,54.85
2023-04-15T09:32:07.138Z,50.28
2023-04-15T09:33:02.354Z,47.26
2023-04-15T09:33:57.436Z,47.17
2023-04-15T09:34:52.241Z,48.49
2023-04-15T09:35:47.644Z,48.58
2023-04-15T09:36:44.863Z,48.81
2023-04-15T09:37:39.931Z,47.15
2023-04-15T09:38:34.988Z,46.95
2023-04-15T09:39:30.068Z,44.61
2023-04-15T09:40:25.097Z,43.64
2023-04-15T09:41:20.195Z,45.42
2023-04-15T09:42:15.222Z,44.19
2023-04-15T09:43:10.303Z,43.84
2023-04-15T09:44:05.424Z,43.71
2023-04-15T09:45:00.475Z,43.22
2023-04-15T09:45:55.652Z,42.09
2023-04-15T09:46:50.593Z,40.79
2023-04-15T09:47:45.583Z,41.31
2023-04-15T09:48:40.774Z,42.45
2023-04-15T09:49:36.114Z,41.01
2023-04-15T09:50:31.503Z,40.63
2023-04-15T09:51:27.007Z,41.44
2023-04-15T09:52:22.433Z,41.86
2023-04-15T09:53:17.822Z,41.42
2023-04-15T09:54:13.502Z,40.50
2023-04-15T09:55:08.817Z,41.58
2023-04-15T09:56:04.261Z,41.53
2023-04-15T09:56:59.605Z,41.60
2023-04-15T09:57:55.110Z,41.52
2023-04-15T09:58:50.675Z,41.13
2023-04-15T09:59:46.054Z,41.82
2023-04-15T10:00:41.403Z,42.01
2023-04-15T10:01:36.895Z,42.36
2023-04-15T10:02:32.318Z,43.19
2023-04-15T10:03:28.055Z,43.55
2023-04-15T10:04:23.399Z,43.02
2023-04-15T10:05:18.790Z,43.09
2023-04-15T10:06:14.283Z,43.07
2023-04-15T10:07:09.797Z,42.94
2023-04-15T10:08:05.092Z,41.75
2023-04-15T10:09:00.170Z,40.70
2023-04-15T10:09:55.152Z,40.20
2023-04-15T10:10:50.232Z,40.62
2023-04-15T10:11:45.236Z,40.87
2023-04-15T10:12:40.352Z,41.27
2023-04-15T10:13:35.348Z,41.04
2023-04-15T10:14:30.562Z,41.28
2023-04-15T10:15:25.541Z,41.96
2023-04-15T10:16:20.695Z,42.32
2023-04-15T10:17:15.597Z,42.32
2023-04-15T10:18:10.707Z,42.48
2023-04-15T10:19:05.965Z,42.92
2023-04-15T10:20:00.780Z,43.00
2023-04-15T10:20:56.077Z,43.33
2023-04-15T10:21:51.416Z,43.51
2023-04-15T10:22:46.816Z,44.33
2023-04-15T10:23:42.195Z,45.17
2023-04-15T10:24:37.889Z,45.56
2023-04-15T10:25:33.213Z,45.79
2023-04-15T10:26:28.353Z,46.14
2023-04-15T10:27:23.450Z,46.49
2023-04-15T10:28:18.536Z,46.49
2023-04-15T10:29:17.026Z,46.12
2023-04-15T10:30:12.166Z,45.78
2023-04-15T10:31:07.193Z,46.22
2023-04-15T10:32:02.198Z,45.94
2023-04-15T10:32:57.301Z,45.87
2023-04-15T10:33:52.494Z,46.25
2023-04-15T10:34:47.575Z,46.87
2023-04-15T10:35:42.536Z,46.30
2023-04-15T10:36:37.550Z,46.03
2023-04-15T10:37:32.557Z,45.93
2023-04-15T10:38:27.918Z,46.06
2023-04-15T10:40:48.039Z,45.88
2023-04-15T10:41:43.175Z,45.17
2023-04-15T10:42:40.512Z,44.59
2023-04-15T10:43:34.196Z,43.95
2023-04-15T10:44:29.593Z,43.31
2023-04-15T10:45:25.211Z,42.84
2023-04-15T10:46:20.596Z,43.09
2023-04-15T10:47:15.959Z,43.13
2023-04-15T10:48:11.671Z,43.29
2023-04-15T10:49:06.785Z,42.93
2023-04-15T10:50:02.323Z,42.92
2023-04-15T10:50:57.699Z,42.72
2023-04-15T10:51:53.034Z,42.57
2023-04-15T10:52:48.569Z,42.30
2023-04-15T10:53:43.870Z,41.67
2023-04-15T10:54:39.282Z,41.43
2023-04-15T10:55:34.717Z,40.78
2023-04-15T10:56:30.034Z,40.95
2023-04-15T10:57:25.455Z,40.54
2023-04-15T10:58:20.809Z,39.88
2023-04-15T10:59:16.379Z,39.67
2023-04-15T11:00:11.770Z,39.84
2023-04-15T11:01:07.191Z,39.85
2023-04-15T11:02:02.583Z,39.48
2023-04-15T11:02:57.999Z,39.53
2023-04-15T11:03:53.365Z,40.13
2023-04-15T11:04:48.691Z,40.47
2023-04-15T11:05:44.113Z,39.55
2023-04-15T11:06:39.530Z,39.37
2023-04-15T11:07:34.923Z,39.08
2023-04-15T11:08:30.490Z,38.72
2023-04-15T11:09:25.785Z,39.11
2023-04-15T11:10:21.255Z,38.94
2023-04-15T11:11:16.617Z,39.78
2023-04-15T11:12:12.024Z,40.18
2023-04-15T11:13:07.472Z,40.62
2023-04-15T11:14:03.035Z,40.91
2023-04-15T11:14:58.277Z,41.16
2023-04-15T11:15:53.564Z,41.18
2023-04-15T11:16:49.032Z,41.49
2023-04-15T11:17:46.431Z,40.97
2023-04-15T11:18:39.894Z,40.74
2023-04-15T11:19:35.518Z,40.73
2023-04-15T11:20:30.716Z,40.95
2023-04-15T11:21:26.154Z,41.05
2023-04-15T11:22:21.577Z,40.88
2023-04-15T11:23:16.933Z,41.53
2023-04-15T11:24:12.160Z,41.02
2023-04-15T11:25:07.597Z,41.46
2023-04-15T11:26:02.987Z,40.79
2023-04-15T11:26:58.425Z,40.87
2023-04-15T11:27:53.816Z,40.60
2023-04-15T11:28:49.485Z,40.99
2023-04-15T11:29:44.594Z,40.97
2023-04-15T11:30:40.167Z,42.01
2023-04-15T11:31:35.644Z,41.06
2023-04-15T11:32:30.938Z,40.63
2023-04-15T11:33:26.367Z,40.39
2023-04-15T11:34:21.705Z,40.66
2023-04-15T11:35:17.205Z,39.87
2023-04-15T11:36:12.638Z,40.18
2023-04-15T11:37:08.035Z,40.58
2023-04-15T11:38:03.604Z,40.86
2023-04-15T11:38:59.070Z,40.96
2023-04-15T11:39:54.341Z,40.60
2023-04-15T11:40:49.699Z,40.94
2023-04-15T11:41:45.195Z,41.74
2023-04-15T11:42:49.490Z,41.62
2023-04-15T11:43:36.849Z,42.08
2023-04-15T11:44:31.222Z,42.04
2023-04-15T11:45:26.728Z,42.29
2023-04-15T11:46:22.173Z,43.04
2023-04-15T11:47:17.735Z,43.83
2023-04-15T11:48:13.191Z,44.65
2023-04-15T11:49:08.627Z,45.61
2023-04-15T11:50:03.884Z,46.68
2023-04-15T11:50:59.335Z,47.99
2023-04-15T11:51:54.788Z,49.32
2023-04-15T11:52:50.248Z,50.26
2023-04-15T11:53:45.659Z,51.10
2023-04-15T11:54:41.186Z,51.32
2023-04-15T11:55:36.641Z,51.03